Time;durP1;ratioP1;P1;durP2;ratioP2;P2;SDS_P1;SDS_P2;PMS_P1;PMS_P2;Temp;Humidity;BMP_temperature;BMP_pressure;BME280_temperature;BME280_humidity;BME280_pressure;Samples;Min_cycle;Max_cycle;Signal;HPM_P1;HPM_P2
2022/09/27 00:00:51;;;;;;;;;;;;;;;9.31;100.00;99649.88;5015977;28;20023;-40
2022/09/27 00:03:16;;;;;;;;;;;;;;;9.33;100.00;99646.03;5010966;28;20376;-41
2022/09/27 00:05:41;;;;;;;;;;;;;;;9.33;100.00;99640.72;5017140;28;19943;-43
2022/09/27 00:08:06;;;;;;;;;;;;;;;9.34;100.00;99647.69;5011808;28;20176;-41
2022/09/27 00:10:32;;;;;;;;;;;;;;;9.36;100.00;99654.69;5010198;28;19924;-40
2022/09/27 00:12:57;;;;;;;;;;;;;;;9.33;100.00;99656.69;5006953;28;19966;-41
2022/09/27 00:15:22;;;;;;;;;;;;;;;9.34;100.00;99655.66;5015752;28;19979;-40
2022/09/27 00:17:51;;;;;;;;;;;;;;;9.36;100.00;99662.66;5016420;28;20176;-42
2022/09/27 00:20:17;;;;;;;;;;;;;;;9.36;100.00;99668.00;5016694;28;20339;-40
2022/09/27 00:22:42;;;;;;;;;;;;;;;9.33;100.00;99666.50;5015874;28;20401;-40
2022/09/27 00:25:07;;;;;;;;;;;;;;;9.33;100.00;99675.34;5016050;28;20012;-41
2022/09/27 00:27:33;;;;;;;;;;;;;;;9.34;100.00;99673.50;5015157;28;19917;-40
2022/09/27 00:29:58;;;;;;;;;;;;;;;9.32;100.00;99665.69;5011765;28;19917;-41
2022/09/27 00:32:23;;;;;;;;;;;;;;;9.31;100.00;99657.88;5003470;28;20125;-42
2022/09/27 00:34:48;;;;;;;;;;;;;;;9.32;100.00;99665.69;5017093;28;19917;-40
2022/09/27 00:37:13;;;;;;;;;;;;;;;9.30;100.00;99665.06;5014294;28;19918;-40
2022/09/27 00:39:39;;;;;;;;;;;;;;;9.29;100.00;99667.91;5017021;28;20015;-41
2022/09/27 00:42:04;;;;;;;;;;;;;;;9.29;100.00;99671.38;5015556;28;20246;-42
2022/09/27 00:44:32;;;;;;;;;;;;;;;9.30;100.00;99672.19;5017053;28;20469;-41
2022/09/27 00:47:06;;;;;;;;;;;;;;;9.27;100.00;99680.56;5011512;28;19932;-40
2022/09/27 00:49:50;;;;;;;;;;;;;;;9.27;100.00;99681.41;5017092;28;19991;-40
2022/09/27 00:52:19;;;;;;;;;;;;;;;9.27;100.00;99678.72;5014650;28;19971;-40
2022/09/27 00:54:46;;;;;;;;;;;;;;;9.26;100.00;99681.56;5012073;28;19921;-40
2022/09/27 00:57:12;;;;;;;;;;;;;;;9.24;100.00;99681.75;5007177;28;20260;-41
2022/09/27 00:59:43;;;;;;;;;;;;;;;9.23;100.00;99688.09;5013635;28;19925;-40
2022/09/27 01:02:08;;;;;;;;;;;;;;;9.21;100.00;99692.75;5001773;28;19939;-40
2022/09/27 01:04:36;;;;;;;;;;;;;;;9.21;100.00;99692.75;5012357;28;20415;-40
2022/09/27 01:07:01;;;;;;;;;;;;;;;9.22;100.00;99688.28;5012304;28;19923;-41
2022/09/27 01:09:27;;;;;;;;;;;;;;;9.22;100.00;99689.09;5018926;28;19917;-40
2022/09/27 01:12:10;;;;;;;;;;;;;;;9.24;100.00;99683.59;5013030;28;19979;-40
2022/09/27 01:14:52;;;;;;;;;;;;;;;9.22;100.00;99681.09;5006687;28;19929;-40
2022/09/27 01:17:36;;;;;;;;;;;;;;;9.21;100.00;99679.44;5012837;28;20000;-40
2022/09/27 01:20:13;;;;;;;;;;;;;;;9.18;100.00;99684.31;5020381;28;19947;-41
2022/09/27 01:22:45;;;;;;;;;;;;;;;9.19;100.00;99691.31;5020032;28;20407;-41
2022/09/27 01:25:29;;;;;;;;;;;;;;;9.17;100.00;99682.66;5009859;28;19932;-41
2022/09/27 01:28:06;;;;;;;;;;;;;;;9.14;100.00;99683.84;5016362;28;19921;-41
2022/09/27 01:30:58;;;;;;;;;;;;;;;9.10;100.00;99694.03;5013291;28;19980;-40
2022/09/27 01:33:37;;;;;;;;;;;;;;;9.08;100.00;99687.22;5017477;28;20277;-40
2022/09/27 01:36:02;;;;;;;;;;;;;;;9.06;100.00;99683.91;5014852;28;20674;-40
2022/09/27 01:38:41;;;;;;;;;;;;;;;9.02;100.00;99691.44;5011681;28;19917;-41
2022/09/27 01:41:11;;;;;;;;;;;;;;;8.99;100.00;99696.28;5007695;28;19928;-40
2022/09/27 01:43:43;;;;;;;;;;;;;;;8.98;100.00;99700.81;5015778;28;20382;-41
2022/09/27 01:46:15;;;;;;;;;;;;;;;8.96;100.00;99698.31;5017426;28;20019;-41
2022/09/27 01:48:43;;;;;;;;;;;;;;;8.95;100.00;99701.16;5018955;28;19999;-41
2022/09/27 01:51:17;;;;;;;;;;;;;;;8.94;100.00;99712.81;5014442;28;19921;-41
2022/09/27 01:53:45;;;;;;;;;;;;;;;8.93;100.00;99706.66;5019383;28;19917;-40
2022/09/27 01:56:14;;;;;;;;;;;;;;;8.92;100.00;99704.16;5017340;28;19925;-42
2022/09/27 01:58:39;;;;;;;;;;;;;;;8.92;100.00;99702.31;5015981;28;19943;-41
2022/09/27 02:01:04;;;;;;;;;;;;;;;8.93;100.00;99701.34;5012382;28;19917;-40
2022/09/27 02:03:32;;;;;;;;;;;;;;;8.91;100.00;99699.84;5034119;28;19979;-41
2022/09/27 02:06:28;;;;;;;;;;;;;;;8.90;100.00;99688.38;5016104;28;21117;-40
2022/09/27 02:09:09;;;;;;;;;;;;;;;8.85;100.00;99688.06;5017010;28;19921;-40
2022/09/27 02:11:37;;;;;;;;;;;;;;;8.80;100.00;99697.63;5006895;28;19917;-40
2022/09/27 02:14:07;;;;;;;;;;;;;;;8.74;100.00;99699.13;5014162;28;19917;-40
2022/09/27 02:17:05;;;;;;;;;;;;;;;8.69;100.00;99702.34;5019138;28;19928;-40
2022/09/27 02:19:33;;;;;;;;;;;;;;;8.66;100.00;99694.72;5015800;28;19976;-40
2022/09/27 02:22:11;;;;;;;;;;;;;;;8.62;100.00;99690.72;5018214;28;20383;-41
2022/09/27 02:24:40;;;;;;;;;;;;;;;8.65;100.00;99697.53;5019078;28;19917;-41
2022/09/27 02:27:11;;;;;;;;;;;;;;;8.61;100.00;99698.91;5016037;28;19917;-39
2022/09/27 02:29:39;;;;;;;;;;;;;;;8.56;100.00;99702.09;5002949;28;20008;-41
2022/09/27 02:32:04;;;;;;;;;;;;;;;8.54;100.00;99694.28;5013990;28;19913;-40
2022/09/27 02:34:32;;;;;;;;;;;;;;;8.52;100.00;99696.31;5018940;28;20237;-40
2022/09/27 02:36:58;;;;;;;;;;;;;;;8.51;100.00;99707.13;5017616;28;19925;-41
2022/09/27 02:39:24;;;;;;;;;;;;;;;8.47;100.00;99717.28;5018275;28;19917;-41
2022/09/27 02:41:49;;;;;;;;;;;;;;;8.45;100.00;99713.13;5014119;28;19940;-39
2022/09/27 02:44:16;;;;;;;;;;;;;;;8.44;100.00;99709.66;5027762;28;19914;-40
2022/09/27 02:47:00;;;;;;;;;;;;;;;8.41;100.00;99716.09;5017600;28;19925;-40
2022/09/27 02:49:43;;;;;;;;;;;;;;;8.38;100.00;99708.50;5017127;28;19992;-40
2022/09/27 02:52:22;;;;;;;;;;;;;;;8.36;100.00;99705.16;5016688;28;19921;-41
2022/09/27 02:55:11;;;;;;;;;;;;;;;8.38;100.00;99710.31;5018977;28;19968;-40
2022/09/27 02:57:42;;;;;;;;;;;;;;;8.32;100.00;99709.19;5015733;28;19927;-40
2022/09/27 03:00:09;;;;;;;;;;;;;;;8.28;100.00;99713.22;5017798;28;19940;-40
2022/09/27 03:02:40;;;;;;;;;;;;;;;8.25;100.00;99702.91;5018637;28;19921;-41
2022/09/27 03:05:08;;;;;;;;;;;;;;;8.21;100.00;99707.75;5005361;28;19921;-41
2022/09/27 03:07:34;;;;;;;;;;;;;;;8.18;100.00;99704.59;5014229;28;19918;-43
2022/09/27 03:09:59;;;;;;;;;;;;;;;8.14;100.00;99693.47;5010102;28;20133;-41
2022/09/27 03:12:25;;;;;;;;;;;;;;;8.13;100.00;99691.84;5006778;28;19920;-40
2022/09/27 03:14:54;;;;;;;;;;;;;;;8.10;100.00;99686.03;5016905;28;19925;-40
2022/09/27 03:17:20;;;;;;;;;;;;;;;8.07;100.00;99695.19;5014758;28;19924;-42
2022/09/27 03:19:45;;;;;;;;;;;;;;;8.03;100.00;99696.53;5008138;28;20361;-41
2022/09/27 03:22:10;;;;;;;;;;;;;;;8.02;100.00;99692.22;5017585;28;20419;-42
2022/09/27 03:24:35;;;;;;;;;;;;;;;8.03;100.00;99701.84;5014503;28;19928;-41
2022/09/27 03:27:01;;;;;;;;;;;;;;;8.01;100.00;99699.38;5011255;28;20380;-40
2022/09/27 03:29:26;;;;;;;;;;;;;;;8.02;100.00;99703.66;5013265;28;19925;-41
2022/09/27 03:31:51;;;;;;;;;;;;;;;8.02;100.00;99708.16;5012796;28;19925;-43
2022/09/27 03:34:17;;;;;;;;;;;;;;;8.02;100.00;99713.47;5014079;28;19924;-40
2022/09/27 03:36:42;;;;;;;;;;;;;;;8.06;100.00;99711.31;5013088;28;19928;-40
2022/09/27 03:39:07;;;;;;;;;;;;;;;8.07;100.00;99719.09;5015341;28;20341;-39
2022/09/27 03:41:32;;;;;;;;;;;;;;;8.11;100.00;99725.75;5017027;28;19913;-42
2022/09/27 03:43:58;;;;;;;;;;;;;;;8.15;100.00;99732.38;5016136;28;19917;-41
2022/09/27 03:46:24;;;;;;;;;;;;;;;8.14;100.00;99751.97;5007694;28;19967;-39
2022/09/27 03:48:49;;;;;;;;;;;;;;;8.21;100.00;99763.63;5014999;28;20632;-40
2022/09/27 03:51:14;;;;;;;;;;;;;;;8.26;100.00;99764.91;5014948;28;20420;-40
2022/09/27 03:53:39;;;;;;;;;;;;;;;8.29;100.00;99783.19;5004145;28;20047;-40
2022/09/27 03:56:05;;;;;;;;;;;;;;;8.25;100.00;99777.41;5011261;28;19925;-40
2022/09/27 03:58:30;;;;;;;;;;;;;;;8.13;100.00;99768.97;5009391;28;20432;-39
2022/09/27 04:00:55;;;;;;;;;;;;;;;7.98;100.00;99766.19;5002613;28;20343;-40
2022/09/27 04:03:20;;;;;;;;;;;;;;;7.87;100.00;99769.19;5016991;28;19925;-40
2022/09/27 04:05:46;;;;;;;;;;;;;;;7.78;100.00;99764.91;5017782;28;20198;-40
2022/09/27 04:08:12;;;;;;;;;;;;;;;7.76;100.00;99761.59;5016290;28;19917;-39
2022/09/27 04:10:37;;;;;;;;;;;;;;;7.68;100.00;99750.97;5009900;28;19913;-40
2022/09/27 04:13:03;;;;;;;;;;;;;;;7.65;100.00;99736.19;5015612;28;19917;-41
2022/09/27 04:15:28;;;;;;;;;;;;;;;7.62;100.00;99741.81;5017469;28;19971;-42
2022/09/27 04:17:53;;;;;;;;;;;;;;;7.63;100.00;99736.34;5015447;28;20194;-41
2022/09/27 04:20:18;;;;;;;;;;;;;;;7.65;100.00;99730.88;5010657;28;19997;-41
2022/09/27 04:22:44;;;;;;;;;;;;;;;7.65;100.00;99725.56;5017096;28;20366;-40
2022/09/27 04:25:10;;;;;;;;;;;;;;;7.66;100.00;99722.72;5017433;28;19921;-39
2022/09/27 04:27:35;;;;;;;;;;;;;;;7.71;100.00;99730.19;5015026;28;19971;-40
2022/09/27 04:30:01;;;;;;;;;;;;;;;7.74;100.00;99729.88;5007641;28;19963;-41
2022/09/27 04:32:26;;;;;;;;;;;;;;;7.76;100.00;99732.34;5016815;28;19921;-42
2022/09/27 04:37:35;;;;;;;;;;;;;;;7.76;100.00;99730.53;5016576;28;20364;-40
2022/09/27 04:40:01;;;;;;;;;;;;;;;7.76;100.00;99727.03;5019470;28;20023;-42
2022/09/27 04:42:26;;;;;;;;;;;;;;;7.72;100.00;99729.22;5018936;28;19924;-41
2022/09/27 04:44:51;;;;;;;;;;;;;;;7.74;100.00;99734.31;5020244;28;20003;-40
2022/09/27 04:47:17;;;;;;;;;;;;;;;7.71;100.00;99730.19;5019238;28;19917;-41
2022/09/27 04:49:43;;;;;;;;;;;;;;;7.75;100.00;99742.13;5019333;28;19984;-39
2022/09/27 04:52:08;;;;;;;;;;;;;;;7.71;100.00;99740.84;5018849;28;20213;-40
2022/09/27 04:54:33;;;;;;;;;;;;;;;7.72;100.00;99750.47;5021236;28;20501;-41
2022/09/27 04:56:58;;;;;;;;;;;;;;;7.77;100.00;99758.75;5006382;28;19917;-40
2022/09/27 04:59:23;;;;;;;;;;;;;;;7.75;100.00;99767.91;5019990;28;19948;-40
2022/09/27 05:01:49;;;;;;;;;;;;;;;7.75;100.00;99782.00;5021106;28;19923;-39
2022/09/27 05:04:14;;;;;;;;;;;;;;;7.74;100.00;99790.13;5019432;28;20228;-40
2022/09/27 05:06:39;;;;;;;;;;;;;;;7.77;100.00;99795.97;5014235;28;19984;-42
2022/09/27 05:09:05;;;;;;;;;;;;;;;7.78;100.00;99786.97;5013297;28;19971;-41
2022/09/27 05:11:30;;;;;;;;;;;;;;;7.78;100.00;99781.66;5014979;28;19925;-40
2022/09/27 05:13:55;;;;;;;;;;;;;;;7.75;100.00;99782.00;5017748;28;19928;-42
2022/09/27 05:16:20;;;;;;;;;;;;;;;7.73;100.00;99776.03;5019378;28;19917;-41
2022/09/27 05:18:46;;;;;;;;;;;;;;;7.73;100.00;99776.03;5015569;28;19964;-41
2022/09/27 05:21:12;;;;;;;;;;;;;;;7.74;100.00;99761.75;5019969;28;19929;-41
2022/09/27 05:23:37;;;;;;;;;;;;;;;7.66;100.00;99749.31;5010899;28;19944;-41
2022/09/27 05:26:03;;;;;;;;;;;;;;;7.66;100.00;99754.63;5015483;28;19928;-42
2022/09/27 05:28:30;;;;;;;;;;;;;;;7.64;100.00;99753.16;5017624;28;19925;-41
2022/09/27 05:30:55;;;;;;;;;;;;;;;7.63;100.00;99754.94;5012124;28;20248;-41
2022/09/27 05:33:20;;;;;;;;;;;;;;;7.67;100.00;99755.44;5000606;28;19937;-41
2022/09/27 05:35:55;;;;;;;;;;;;;;;7.65;100.00;99760.09;5001003;28;20063;-39
2022/09/27 05:38:21;;;;;;;;;;;;;;;7.63;100.00;99762.91;5003513;28;19917;-40
2022/09/27 05:40:49;;;;;;;;;;;;;;;7.65;100.00;99758.28;5007819;28;20454;-42
2022/09/27 05:43:14;;;;;;;;;;;;;;;7.63;100.00;99760.25;5004846;28;19921;-41
2022/09/27 05:45:40;;;;;;;;;;;;;;;7.65;100.00;99752.13;5004557;28;20398;-42
2022/09/27 05:48:05;;;;;;;;;;;;;;;7.64;100.00;99755.81;5019024;28;19996;-42
2022/09/27 05:50:30;;;;;;;;;;;;;;;7.65;100.00;99738.84;5003614;28;20411;-41
2022/09/27 05:52:56;;;;;;;;;;;;;;;7.64;100.00;99743.34;5000985;28;19971;-41
2022/09/27 05:55:22;;;;;;;;;;;;;;;7.62;100.00;99744.47;4999973;28;19922;-38
2022/09/27 05:57:54;;;;;;;;;;;;;;;7.64;100.00;99753.16;5004510;28;19913;-40
2022/09/27 06:00:21;;;;;;;;;;;;;;;7.66;100.00;99737.84;5011511;28;19971;-41
2022/09/27 06:02:51;;;;;;;;;;;;;;;7.66;100.00;99745.81;5013004;28;20047;-39
2022/09/27 06:05:16;;;;;;;;;;;;;;;7.70;100.00;99754.28;5002935;28;20347;-39
2022/09/27 06:07:42;;;;;;;;;;;;;;;7.72;100.00;99752.28;5008832;28;20189;-41
2022/09/27 06:10:07;;;;;;;;;;;;;;;7.73;100.00;99752.13;4999584;28;19924;-40
2022/09/27 06:12:33;;;;;;;;;;;;;;;7.75;100.00;99762.56;4997722;28;19920;-40
2022/09/27 06:14:58;;;;;;;;;;;;;;;7.77;100.00;99772.06;4999338;28;20013;-39
2022/09/27 06:17:23;;;;;;;;;;;;;;;7.79;100.00;99780.69;5013843;28;20425;-40
2022/09/27 06:19:49;;;;;;;;;;;;;;;7.81;100.00;99781.34;5004896;28;20079;-42
2022/09/27 06:22:14;;;;;;;;;;;;;;;7.84;100.00;99772.19;5006517;28;19954;-43
2022/09/27 06:24:39;;;;;;;;;;;;;;;7.83;100.00;99776.69;5000069;28;20360;-40
2022/09/27 06:27:04;;;;;;;;;;;;;;;7.84;100.00;99770.38;5005820;28;19921;-40
2022/09/27 06:29:34;;;;;;;;;;;;;;;7.83;100.00;99774.00;5012689;28;19921;-40
2022/09/27 06:31:59;;;;;;;;;;;;;;;7.85;100.00;99768.53;5011277;28;19956;-39
2022/09/27 06:34:24;;;;;;;;;;;;;;;7.77;100.00;99765.88;5016864;28;19960;-40
2022/09/27 06:36:49;;;;;;;;;;;;;;;7.75;100.00;99770.56;5002790;28;20261;-41
2022/09/27 06:39:14;;;;;;;;;;;;;;;7.74;100.00;99769.72;4999343;28;20481;-40
2022/09/27 06:41:40;;;;;;;;;;;;;;;7.74;100.00;99779.50;5002944;28;19921;-39
2022/09/27 06:44:06;;;;;;;;;;;;;;;7.76;100.00;99774.88;4998990;28;20319;-40
2022/09/27 06:46:31;;;;;;;;;;;;;;;7.71;100.00;99767.41;5008714;28;19924;-39
2022/09/27 06:48:56;;;;;;;;;;;;;;;7.73;100.00;99772.56;5009737;28;19928;-40
2022/09/27 06:51:21;;;;;;;;;;;;;;;7.74;100.00;99764.41;5017913;28;19917;-40
2022/09/27 06:53:47;;;;;;;;;;;;;;;7.77;100.00;99766.75;5010810;28;19959;-42
2022/09/27 06:56:12;;;;;;;;;;;;;;;7.79;100.00;99778.03;5011148;28;19921;-41
2022/09/27 07:01:25;;;;;;;;;;;;;;;7.87;100.00;99765.72;5007322;28;19921;-43
2022/09/27 07:03:50;;;;;;;;;;;;;;;7.91;100.00;99772.31;5016500;28;20007;-42
2022/09/27 07:06:19;;;;;;;;;;;;;;;7.94;100.00;99772.00;5010693;28;20087;-42
2022/09/27 07:08:44;;;;;;;;;;;;;;;7.97;100.00;99783.13;5001653;28;19925;-40
2022/09/27 07:11:09;;;;;;;;;;;;;;;8.03;100.00;99778.97;5012777;28;20214;-39
2022/09/27 07:13:39;;;;;;;;;;;;;;;8.09;100.00;99780.91;5010514;28;19996;-41
2022/09/27 07:16:04;;;;;;;;;;;;;;;8.15;100.00;99784.75;4998333;28;20000;-40
2022/09/27 07:18:29;;;;;;;;;;;;;;;8.19;100.00;99784.22;4998601;28;20434;-40
2022/09/27 07:20:55;;;;;;;;;;;;;;;8.24;100.00;99796.19;5021574;28;20114;-40
2022/09/27 07:23:20;;;;;;;;;;;;;;;8.32;100.00;99798.81;5004008;28;20360;-41
2022/09/27 07:25:46;;;;;;;;;;;;;;;8.36;100.00;99802.78;5004937;28;20567;-40
2022/09/27 07:28:16;;;;;;;;;;;;;;;8.38;100.00;99796.28;5002581;28;19917;-42
2022/09/27 07:30:42;;;;;;;;;;;;;;;8.44;100.00;99801.97;4998011;28;19971;-42
2022/09/27 07:33:08;;;;;;;;;;;;;;;8.46;100.00;99800.78;5009858;28;19921;-42
2022/09/27 07:35:38;;;;;;;;;;;;;;;8.53;100.00;99812.38;5007025;28;20412;-39
2022/09/27 07:38:04;;;;;;;;;;;;;;;8.54;100.00;99805.25;4996775;28;19921;-40
2022/09/27 07:40:29;;;;;;;;;;;;;;;8.55;100.00;99812.19;4998085;28;20473;-39
2022/09/27 07:42:55;;;;;;;;;;;;;;;8.55;100.00;99809.53;4995240;28;19917;-40
2022/09/27 07:45:21;;;;;;;;;;;;;;;8.61;100.00;99810.69;4998205;28;19929;-41
2022/09/27 07:47:47;;;;;;;;;;;;;;;8.64;100.00;99815.66;5015465;28;19914;-41
2022/09/27 07:50:12;;;;;;;;;;;;;;;8.64;100.00;99805.00;5017126;28;19920;-42
2022/09/27 07:52:38;;;;;;;;;;;;;;;8.67;100.00;99813.50;5015265;28;20367;-40
2022/09/27 07:55:04;;;;;;;;;;;;;;;8.72;100.00;99815.63;5015639;28;19992;-41
2022/09/27 07:57:29;;;;;;;;;;;;;;;8.76;100.00;99814.28;5011684;28;19928;-41
2022/09/27 07:59:54;;;;;;;;;;;;;;;8.78;100.00;99820.25;4997512;28;19924;-41
2022/09/27 08:02:20;;;;;;;;;;;;;;;8.80;100.00;99814.75;5002511;28;20281;-41
2022/09/27 08:04:48;;;;;;;;;;;;;;;8.80;100.00;99823.56;5010147;28;20142;-40
2022/09/27 08:07:13;;;;;;;;;;;;;;;8.87;100.00;99827.19;5013531;28;19917;-41
2022/09/27 08:09:38;;;;;;;;;;;;;;;8.92;100.00;99824.81;5002247;28;20000;-40
2022/09/27 08:12:03;;;;;;;;;;;;;;;8.92;100.00;99818.66;4994907;28;19960;-40
2022/09/27 08:14:29;;;;;;;;;;;;;;;8.92;100.00;99819.50;5008556;28;19920;-43
2022/09/27 08:16:54;;;;;;;;;;;;;;;8.94;100.00;99827.31;5001125;28;20402;-42
2022/09/27 08:19:20;;;;;;;;;;;;;;;9.01;100.00;99828.25;5007355;28;19917;-42
2022/09/27 08:21:45;;;;;;;;;;;;;;;9.05;100.00;99829.56;5006263;28;19924;-40
2022/09/27 08:24:11;;;;;;;;;;;;;;;9.11;100.00;99826.22;4997168;28;20966;-42
2022/09/27 08:26:36;;;;;;;;;;;;;;;9.16;100.00;99817.69;4996814;28;19924;-40
2022/09/27 08:29:02;;;;;;;;;;;;;;;9.22;100.00;99827.63;5010534;28;20371;-40
2022/09/27 08:31:27;;;;;;;;;;;;;;;9.28;100.00;99818.09;4996389;28;19913;-40
2022/09/27 08:33:52;;;;;;;;;;;;;;;9.34;100.00;99828.88;4996407;28;20431;-40
2022/09/27 08:36:17;;;;;;;;;;;;;;;9.34;100.00;99830.72;4997640;28;19921;-39
2022/09/27 08:38:42;;;;;;;;;;;;;;;9.33;100.00;99840.56;5010412;28;19967;-38
2022/09/27 08:41:12;;;;;;;;;;;;;;;9.29;100.00;99849.06;5012085;28;19914;-42
2022/09/27 08:43:40;;;;;;;;;;;;;;;9.26;100.00;99844.91;5000450;28;19940;-41
2022/09/27 08:46:24;;;;;;;;;;;;;;;9.24;100.00;99844.25;5003696;28;20388;-41
2022/09/27 08:48:53;;;;;;;;;;;;;;;9.24;100.00;99846.94;5017041;28;19913;-41
2022/09/27 08:51:20;;;;;;;;;;;;;;;9.25;100.00;99843.28;5015054;28;19913;-40
2022/09/27 08:53:50;;;;;;;;;;;;;;;9.22;100.00;99848.13;5016181;28;19991;-40
2022/09/27 08:56:20;;;;;;;;;;;;;;;9.20;100.00;99847.44;5014286;28;19925;-40
2022/09/27 08:58:57;;;;;;;;;;;;;;;9.14;100.00;99852.47;5015263;28;20335;-40
2022/09/27 09:01:23;;;;;;;;;;;;;;;9.10;100.00;99851.19;5015984;28;20020;-40
2022/09/27 09:03:56;;;;;;;;;;;;;;;9.12;100.00;99856.34;5015750;28;20443;-40
2022/09/27 09:06:24;;;;;;;;;;;;;;;9.07;100.00;99859.53;5012807;28;20546;-39
2022/09/27 09:09:08;;;;;;;;;;;;;;;9.02;100.00;99861.88;4996209;28;19913;-40
2022/09/27 09:14:54;;;;;;;;;;;;;;;8.96;100.00;99865.22;5001261;28;19972;-40
2022/09/27 09:17:38;;;;;;;;;;;;;;;8.93;100.00;99870.94;5003403;28;19979;-40
2022/09/27 09:20:15;;;;;;;;;;;;;;;8.94;100.00;99868.09;5012744;28;20430;-41
2022/09/27 09:22:48;;;;;;;;;;;;;;;8.98;100.00;99871.25;5010169;28;19920;-39
2022/09/27 09:25:27;;;;;;;;;;;;;;;9.00;100.00;99873.72;5011446;28;19928;-40
2022/09/27 09:28:15;;;;;;;;;;;;;;;9.02;100.00;99871.72;5013676;28;20072;-40
2022/09/27 09:30:52;;;;;;;;;;;;;;;9.02;100.00;99872.53;5010202;28;20296;-39
2022/09/27 09:33:23;;;;;;;;;;;;;;;9.04;100.00;99878.50;5011279;28;20323;-41
2022/09/27 09:35:49;;;;;;;;;;;;;;;8.97;100.00;99869.56;5011728;28;20471;-39
2022/09/27 09:38:19;;;;;;;;;;;;;;;8.93;100.00;99874.41;5006854;28;20427;-40
2022/09/27 09:40:47;;;;;;;;;;;;;;;8.80;100.00;99876.81;5008726;28;20437;-40
2022/09/27 09:43:16;;;;;;;;;;;;;;;8.56;100.00;99869.75;4997913;28;19913;-39
2022/09/27 09:45:44;;;;;;;;;;;;;;;8.38;100.00;99876.13;5000369;28;19920;-40
2022/09/27 09:48:10;;;;;;;;;;;;;;;8.14;100.00;99869.00;5019432;28;20351;-39
2022/09/27 09:50:41;;;;;;;;;;;;;;;8.04;100.00;99876.34;5018758;28;19925;-40
2022/09/27 09:53:18;;;;;;;;;;;;;;;7.98;100.00;99869.03;5015804;28;19917;-40
2022/09/27 09:55:47;;;;;;;;;;;;;;;8.01;100.00;99868.69;5015188;28;19921;-39
2022/09/27 09:58:27;;;;;;;;;;;;;;;8.10;100.00;99873.00;5016266;28;20011;-39
2022/09/27 10:00:55;;;;;;;;;;;;;;;8.17;100.00;99870.50;5016415;28;20097;-40
2022/09/27 10:03:20;;;;;;;;;;;;;;;8.24;100.00;99873.31;5013858;28;20780;-39
2022/09/27 10:05:46;;;;;;;;;;;;;;;8.33;100.00;99875.78;5017187;28;20380;-41
2022/09/27 10:08:21;;;;;;;;;;;;;;;8.40;100.00;99871.44;5015428;28;20405;-40
2022/09/27 10:10:47;;;;;;;;;;;;;;;8.45;100.00;99872.78;5006808;28;19913;-42
2022/09/27 10:13:15;;;;;;;;;;;;;;;8.43;100.00;99878.28;5010391;28;19936;-41
2022/09/27 10:15:40;;;;;;;;;;;;;;;8.41;100.00;99885.56;5009734;28;19997;-40
2022/09/27 10:18:11;;;;;;;;;;;;;;;8.35;100.00;99872.94;5001735;28;19918;-41
2022/09/27 10:20:42;;;;;;;;;;;;;;;8.40;100.00;99876.75;4999729;28;20320;-41
2022/09/27 10:23:12;;;;;;;;;;;;;;;8.47;100.00;99876.94;5001717;28;20145;-41
2022/09/27 10:26:04;;;;;;;;;;;;;;;8.52;100.00;99874.59;5003857;28;19959;-39
2022/09/27 10:28:36;;;;;;;;;;;;;;;8.62;100.00;99878.88;4999128;28;19971;-42
2022/09/27 10:31:02;;;;;;;;;;;;;;;8.71;100.00;99870.69;4998185;28;20156;-41
2022/09/27 10:33:30;;;;;;;;;;;;;;;8.78;100.00;99879.63;5001788;28;19980;-40
2022/09/27 10:35:55;;;;;;;;;;;;;;;8.80;100.00;99879.47;5012934;28;20226;-40
2022/09/27 10:38:28;;;;;;;;;;;;;;;8.83;100.00;99871.16;5014368;28;19991;-40
2022/09/27 10:40:54;;;;;;;;;;;;;;;8.90;100.00;99874.75;5014497;28;21088;-40
2022/09/27 10:43:28;;;;;;;;;;;;;;;8.91;100.00;99875.59;5015883;28;19959;-42
2022/09/27 10:46:06;;;;;;;;;;;;;;;8.93;100.00;99873.59;5012551;28;19925;-42
2022/09/27 10:48:31;;;;;;;;;;;;;;;8.97;100.00;99874.91;5019274;28;19924;-41
2022/09/27 10:51:00;;;;;;;;;;;;;;;9.03;100.00;99884.88;5010484;28;19921;-40
2022/09/27 10:53:27;;;;;;;;;;;;;;;9.09;100.00;99878.00;5014205;28;19917;-40
2022/09/27 10:55:52;;;;;;;;;;;;;;;9.15;100.00;99878.13;5001845;28;19921;-41
2022/09/27 10:58:20;;;;;;;;;;;;;;;9.18;100.00;99876.09;5000350;28;20356;-41
2022/09/27 11:00:53;;;;;;;;;;;;;;;9.27;100.00;99878.56;4998451;28;19924;-40
2022/09/27 11:03:18;;;;;;;;;;;;;;;9.37;100.00;99874.81;4998354;28;20265;-40
2022/09/27 11:05:43;;;;;;;;;;;;;;;9.47;100.00;99872.75;5004534;28;19917;-42
2022/09/27 11:08:17;;;;;;;;;;;;;;;9.47;100.00;99872.75;5005163;28;19917;-43
2022/09/27 11:10:43;;;;;;;;;;;;;;;9.56;100.00;99879.69;4996757;28;20475;-42
2022/09/27 11:13:16;;;;;;;;;;;;;;;9.69;100.00;99879.06;4996714;28;20566;-42
2022/09/27 11:15:44;;;;;;;;;;;;;;;9.73;100.00;99880.38;5004676;28;19937;-42
2022/09/27 11:18:29;;;;;;;;;;;;;;;9.73;100.00;99877.72;5011717;28;20189;-41
2022/09/27 11:21:06;;;;;;;;;;;;;;;9.69;100.00;99879.91;5010161;28;19924;-40
2022/09/27 11:23:42;;;;;;;;;;;;;;;9.73;100.00;99882.22;5001028;28;19924;-41
2022/09/27 11:26:22;;;;;;;;;;;;;;;9.78;100.00;99874.53;5003510;28;20423;-41
2022/09/27 11:29:06;;;;;;;;;;;;;;;9.86;100.00;99879.75;5008071;28;20391;-41
2022/09/27 11:31:41;;;;;;;;;;;;;;;9.91;100.00;99882.72;4998059;28;20261;-40
2022/09/27 11:34:13;;;;;;;;;;;;;;;9.94;100.00;99871.69;4997703;28;19913;-40
2022/09/27 11:36:58;;;;;;;;;;;;;;;9.96;100.00;99868.84;5001879;28;19933;-41
2022/09/27 11:39:26;;;;;;;;;;;;;;;9.90;100.00;99865.91;5008334;28;19923;-40
2022/09/27 11:41:52;;;;;;;;;;;;;;;9.83;100.00;99866.81;4998137;28;19918;-40
2022/09/27 11:44:24;;;;;;;;;;;;;;;9.80;100.00;99859.16;5004133;28;20001;-39
2022/09/27 11:47:02;;;;;;;;;;;;;;;9.81;100.00;99860.81;5012599;28;20356;-41
2022/09/27 11:49:46;;;;;;;;;;;;;;;9.78;100.00;99859.34;5011507;28;20383;-41
2022/09/27 11:52:19;;;;;;;;;;;;;;;9.82;100.00;99863.28;5003449;28;19922;-40
2022/09/27 11:54:56;;;;;;;;;;;;;;;9.93;100.00;99861.19;5015288;28;20051;-39
2022/09/27 11:57:22;;;;;;;;;;;;;;;10.08;100.00;99862.03;5026972;28;19921;-41
2022/09/27 12:00:03;;;;;;;;;;;;;;;10.30;100.00;99862.16;5003109;28;20375;-39
2022/09/27 12:02:55;;;;;;;;;;;;;;;10.45;100.00;99849.69;5011660;28;20047;-40
2022/09/27 12:05:40;;;;;;;;;;;;;;;10.71;100.00;99861.72;5010474;28;20151;-41
2022/09/27 12:08:24;;;;;;;;;;;;;;;10.77;100.00;99863.66;5014721;28;19918;-41
2022/09/27 12:10:52;;;;;;;;;;;;;;;10.70;100.00;99855.56;5011774;28;19921;-41
2022/09/27 12:13:31;;;;;;;;;;;;;;;10.72;100.00;99860.72;5011539;28;19914;-40
2022/09/27 12:15:57;;;;;;;;;;;;;;;10.78;100.00;99868.00;5015382;28;20296;-41
2022/09/27 12:18:31;;;;;;;;;;;;;;;10.83;100.00;99868.25;5010592;28;19928;-40
2022/09/27 12:21:00;;;;;;;;;;;;;;;10.82;100.00;99855.91;5013228;28;19991;-40
2022/09/27 12:23:32;;;;;;;;;;;;;;;10.76;100.00;99854.81;5012673;28;20024;-41
2022/09/27 12:26:02;;;;;;;;;;;;;;;10.73;100.00;99849.03;4994271;28;20372;-40
2022/09/27 12:28:44;;;;;;;;;;;;;;;10.88;100.00;99857.00;4996974;28;20368;-42
2022/09/27 12:31:32;;;;;;;;;;;;;;;11.00;100.00;99853.66;4996161;28;20060;-42
2022/09/27 12:34:01;;;;;;;;;;;;;;;11.03;100.00;99852.44;4995321;28;20005;-41
2022/09/27 12:36:29;;;;;;;;;;;;;;;10.94;100.00;99848.25;4999750;28;19913;-42
2022/09/27 12:39:07;;;;;;;;;;;;;;;10.87;100.00;99837.47;4997694;28;20054;-41
2022/09/27 12:41:35;;;;;;;;;;;;;;;10.94;100.00;99848.25;4994403;28;19963;-41
2022/09/27 12:44:00;;;;;;;;;;;;;;;11.08;100.00;99842.00;4994050;28;19918;-42
2022/09/27 12:46:39;;;;;;;;;;;;;;;11.35;100.00;99848.47;5000326;28;19920;-41
2022/09/27 12:49:14;;;;;;;;;;;;;;;11.71;100.00;99844.91;5014647;28;19914;-42
2022/09/27 12:51:45;;;;;;;;;;;;;;;11.91;100.00;99837.06;5014267;28;19944;-42
2022/09/27 12:54:23;;;;;;;;;;;;;;;12.00;100.00;99840.41;5013763;28;19953;-42
2022/09/27 12:57:03;;;;;;;;;;;;;;;11.96;100.00;99835.63;5012220;28;19917;-42
2022/09/27 12:59:47;;;;;;;;;;;;;;;11.79;100.00;99840.41;5014445;28;19917;-41
2022/09/27 13:02:19;;;;;;;;;;;;;;;11.68;100.00;99829.22;5015249;28;19994;-41
2022/09/27 13:05:04;;;;;;;;;;;;;;;11.56;100.00;99823.56;5019111;28;19921;-43